Time;durP1;ratioP1;P1;durP2;ratioP2;P2;SDS_P1;SDS_P2;PMS_P1;PMS_P2;Temp;Humidity;BMP_temperature;BMP_pressure;BME280_temperature;BME280_humidity;BME280_pressure;Samples;Min_cycle;Max_cycle;Signal;HPM_P1;HPM_P2
2021/06/07 00:00:14;;;;;;;8.15;3.22;;;;;;;;;;1492985;39;20035;-60
2021/06/07 00:01:18;;;;;;;7.93;3.47;;;;;;;;;;1492767;39;20031;-61
2021/06/07 00:02:19;;;;;;;4.45;2.80;;;;;;;;;;1492991;39;20028;-61
2021/06/07 00:03:22;;;;;;;4.72;3.10;;;;;;;;;;1492707;39;20043;-60
2021/06/07 00:04:24;;;;;;;5.80;3.22;;;;;;;;;;1492959;39;20027;-60
2021/06/07 00:05:25;;;;;;;5.43;2.90;;;;;;;;;;1492878;39;20060;-60
2021/06/07 00:06:27;;;;;;;4.82;3.00;;;;;;;;;;1493039;39;20023;-60
2021/06/07 00:07:27;;;;;;;4.10;2.70;;;;;;;;;;1492947;39;20038;-60
2021/06/07 00:08:29;;;;;;;3.47;2.42;;;;;;;;;;1493004;39;20299;-62
2021/06/07 00:09:30;;;;;;;3.10;2.80;;;;;;;;;;1492759;39;20031;-60
2021/06/07 00:10:31;;;;;;;3.40;2.63;;;;;;;;;;1492885;39;20039;-62
2021/06/07 00:11:33;;;;;;;5.32;3.03;;;;;;;;;;1492696;39;20035;-60
2021/06/07 00:12:34;;;;;;;5.28;3.00;;;;;;;;;;1492986;39;20117;-60
2021/06/07 00:13:36;;;;;;;8.27;3.72;;;;;;;;;;1492891;39;20108;-60
2021/06/07 00:14:38;;;;;;;4.60;3.08;;;;;;;;;;1492745;39;20028;-60
2021/06/07 00:15:39;;;;;;;4.47;3.17;;;;;;;;;;1492937;39;20032;-60
2021/06/07 00:16:41;;;;;;;4.32;3.00;;;;;;;;;;1492896;39;20039;-60
2021/06/07 00:17:42;;;;;;;4.00;2.53;;;;;;;;;;1492733;39;20412;-62
2021/06/07 00:18:46;;;;;;;5.18;2.67;;;;;;;;;;1492728;39;20028;-60
2021/06/07 00:19:46;;;;;;;7.82;2.67;;;;;;;;;;1492715;39;20402;-61
2021/06/07 00:20:51;;;;;;;5.65;2.80;;;;;;;;;;1492675;39;20035;-60
2021/06/07 00:21:52;;;;;;;5.35;2.78;;;;;;;;;;1492909;39;20040;-62
2021/06/07 00:22:53;;;;;;;3.40;2.67;;;;;;;;;;1492775;39;20032;-60
2021/06/07 00:23:56;;;;;;;4.88;3.15;;;;;;;;;;1492865;39;20035;-61
2021/06/07 00:24:57;;;;;;;7.07;3.00;;;;;;;;;;1492844;39;20027;-61
2021/06/07 00:25:58;;;;;;;4.72;2.85;;;;;;;;;;1492705;39;20034;-60
2021/06/07 00:27:00;;;;;;;7.40;3.15;;;;;;;;;;1492846;39;20028;-61
2021/06/07 00:28:01;;;;;;;4.38;2.60;;;;;;;;;;1492706;39;20024;-61
2021/06/07 00:29:03;;;;;;;4.07;2.75;;;;;;;;;;1492694;39;20032;-62
2021/06/07 00:30:06;;;;;;;5.65;3.55;;;;;;;;;;1492823;39;20030;-62
2021/06/07 00:31:08;;;;;;;6.35;3.30;;;;;;;;;;1492860;39;20027;-61
2021/06/07 00:32:09;;;;;;;4.00;2.90;;;;;;;;;;1492862;39;20028;-60
2021/06/07 00:33:10;;;;;;;4.32;2.90;;;;;;;;;;1492829;39;20136;-60
2021/06/07 00:34:13;;;;;;;5.32;2.80;;;;;;;;;;1492653;39;20016;-61
2021/06/07 00:35:18;;;;;;;4.47;2.70;;;;;;;;;;1492816;39;20038;-60
2021/06/07 00:36:21;;;;;;;6.80;3.08;;;;;;;;;;1492891;39;20042;-61
2021/06/07 00:37:22;;;;;;;6.78;3.05;;;;;;;;;;1492637;39;20024;-61
2021/06/07 00:38:23;;;;;;;5.70;2.65;;;;;;;;;;1492871;39;20028;-60
2021/06/07 00:39:24;;;;;;;5.82;3.20;;;;;;;;;;1492628;39;20055;-61
2021/06/07 00:40:27;;;;;;;4.70;2.80;;;;;;;;;;1492603;39;20032;-61
2021/06/07 00:41:28;;;;;;;5.15;2.88;;;;;;;;;;1492152;39;20068;-62
2021/06/07 00:42:29;;;;;;;4.60;2.85;;;;;;;;;;1492353;39;20031;-60
2021/06/07 00:43:30;;;;;;;4.88;3.13;;;;;;;;;;1492836;39;20058;-62
2021/06/07 00:44:31;;;;;;;4.95;3.30;;;;;;;;;;1492891;39;20068;-60
2021/06/07 00:45:35;;;;;;;4.25;3.17;;;;;;;;;;1492758;39;20035;-62
2021/06/07 00:46:36;;;;;;;4.68;2.88;;;;;;;;;;1492789;39;20031;-60
2021/06/07 00:47:38;;;;;;;5.15;3.00;;;;;;;;;;1492348;39;20138;-60
2021/06/07 00:48:39;;;;;;;3.75;2.88;;;;;;;;;;1492144;39;20403;-60
2021/06/07 00:49:42;;;;;;;4.15;3.00;;;;;;;;;;1492302;39;20031;-60
2021/06/07 00:50:49;;;;;;;5.45;3.22;;;;;;;;;;1492354;39;20108;-60
2021/06/07 00:51:51;;;;;;;6.63;3.15;;;;;;;;;;1492606;39;20412;-60
2021/06/07 00:53:02;;;;;;;3.97;2.72;;;;;;;;;;1492694;39;20047;-61
2021/06/07 00:54:04;;;;;;;3.67;2.80;;;;;;;;;;1492604;39;20315;-61
2021/06/07 00:55:06;;;;;;;4.32;3.20;;;;;;;;;;1492750;39;20035;-61
2021/06/07 00:56:10;;;;;;;5.45;2.72;;;;;;;;;;1492694;39;20050;-60
2021/06/07 00:57:10;;;;;;;4.60;2.90;;;;;;;;;;1492575;39;20031;-61
2021/06/07 00:58:12;;;;;;;5.25;3.22;;;;;;;;;;1492804;39;20038;-60
2021/06/07 00:59:13;;;;;;;5.80;2.70;;;;;;;;;;1492577;39;20357;-60
2021/06/07 01:00:15;;;;;;;5.68;2.88;;;;;;;;;;1492563;39;20387;-60
2021/06/07 01:01:18;;;;;;;3.85;3.03;;;;;;;;;;1492589;39;20030;-59
2021/06/07 01:02:19;;;;;;;4.25;2.92;;;;;;;;;;1492813;39;20024;-61
2021/06/07 01:03:21;;;;;;;7.93;3.15;;;;;;;;;;1492661;39;20043;-61
2021/06/07 01:04:22;;;;;;;4.88;2.78;;;;;;;;;;1492745;39;20113;-59
2021/06/07 01:05:26;;;;;;;3.50;2.80;;;;;;;;;;1492863;39;20061;-59
2021/06/07 01:06:28;;;;;;;7.35;3.10;;;;;;;;;;1493242;39;20298;-60
2021/06/07 01:07:29;;;;;;;3.72;2.88;;;;;;;;;;1493471;39;20028;-60
2021/06/07 01:08:30;;;;;;;3.95;2.65;;;;;;;;;;1493310;39;20124;-60
2021/06/07 01:09:31;;;;;;;6.53;2.80;;;;;;;;;;1493239;39;20032;-60
2021/06/07 01:10:34;;;;;;;4.40;2.85;;;;;;;;;;1493418;39;20023;-60
2021/06/07 01:11:37;;;;;;;4.95;2.80;;;;;;;;;;1493261;39;20023;-59
2021/06/07 01:12:38;;;;;;;4.25;2.88;;;;;;;;;;1493123;39;20039;-59
2021/06/07 01:13:40;;;;;;;4.10;2.80;;;;;;;;;;1493223;39;20089;-61
2021/06/07 01:14:41;;;;;;;3.10;2.47;;;;;;;;;;1493200;39;20414;-60
2021/06/07 01:15:42;;;;;;;6.00;2.88;;;;;;;;;;1493175;39;20039;-60
2021/06/07 01:16:43;;;;;;;4.43;2.70;;;;;;;;;;1493398;39;20027;-60
2021/06/07 01:17:45;;;;;;;5.38;2.80;;;;;;;;;;1493155;39;20032;-59
2021/06/07 01:18:46;;;;;;;4.40;2.83;;;;;;;;;;1493393;39;20030;-59
2021/06/07 01:19:48;;;;;;;5.00;2.75;;;;;;;;;;1493387;39;20032;-59
2021/06/07 01:20:52;;;;;;;5.35;2.53;;;;;;;;;;1493358;39;20051;-60
2021/06/07 01:22:02;;;;;;;4.28;2.50;;;;;;;;;;1493289;39;20028;-59
2021/06/07 01:23:03;;;;;;;3.55;2.40;;;;;;;;;;1493257;39;20423;-59
2021/06/07 01:24:05;;;;;;;3.83;2.97;;;;;;;;;;1493392;39;20032;-59
2021/06/07 01:25:10;;;;;;;4.70;3.17;;;;;;;;;;1493191;39;20387;-59
2021/06/07 01:26:16;;;;;;;4.57;2.83;;;;;;;;;;1493209;39;20120;-59
2021/06/07 01:27:18;;;;;;;6.82;3.20;;;;;;;;;;1493210;39;20109;-59
2021/06/07 01:28:19;;;;;;;3.85;3.20;;;;;;;;;;1493392;39;20027;-59
2021/06/07 01:29:20;;;;;;;4.55;3.17;;;;;;;;;;1493155;39;20032;-59
2021/06/07 01:30:25;;;;;;;4.15;2.95;;;;;;;;;;1493178;39;20020;-59
2021/06/07 01:31:26;;;;;;;4.55;3.03;;;;;;;;;;1493191;39;20035;-59
2021/06/07 01:32:27;;;;;;;4.03;2.85;;;;;;;;;;1493164;39;20043;-59
2021/06/07 01:33:30;;;;;;;4.20;2.53;;;;;;;;;;1493338;39;20110;-59
2021/06/07 01:34:34;;;;;;;3.90;3.00;;;;;;;;;;1493391;39;20039;-59
2021/06/07 01:35:35;;;;;;;4.10;2.55;;;;;;;;;;1493185;39;20128;-59
2021/06/07 01:36:37;;;;;;;6.28;3.50;;;;;;;;;;1493229;39;20028;-59
2021/06/07 01:37:43;;;;;;;5.22;3.10;;;;;;;;;;1493139;39;20034;-61
2021/06/07 01:38:44;;;;;;;5.15;3.00;;;;;;;;;;1493171;39;20368;-61
2021/06/07 01:39:45;;;;;;;6.75;3.17;;;;;;;;;;1493354;39;20024;-61
2021/06/07 01:40:49;;;;;;;4.63;3.03;;;;;;;;;;1493356;39;20299;-59
2021/06/07 01:41:50;;;;;;;5.15;3.08;;;;;;;;;;1493127;39;20035;-61
2021/06/07 01:42:51;;;;;;;5.65;3.28;;;;;;;;;;1493321;39;20055;-59
2021/06/07 01:43:53;;;;;;;4.03;3.38;;;;;;;;;;1493161;39;20085;-61
2021/06/07 01:44:54;;;;;;;4.07;3.08;;;;;;;;;;1493162;39;20295;-61
2021/06/07 01:45:56;;;;;;;3.60;3.00;;;;;;;;;;1493159;39;20028;-59
2021/06/07 01:46:57;;;;;;;4.15;2.95;;;;;;;;;;1493311;39;20027;-60
2021/06/07 01:48:00;;;;;;;3.92;2.83;;;;;;;;;;1493356;39;20107;-59
2021/06/07 01:49:01;;;;;;;4.82;3.08;;;;;;;;;;1493320;39;20108;-61
2021/06/07 01:50:05;;;;;;;5.18;3.42;;;;;;;;;;1493024;39;20040;-59
2021/06/07 01:51:08;;;;;;;5.45;3.40;;;;;;;;;;1493350;39;20081;-59
2021/06/07 01:52:09;;;;;;;3.78;2.95;;;;;;;;;;1493111;39;20388;-60
2021/06/07 01:53:13;;;;;;;7.18;3.45;;;;;;;;;;1493090;39;20032;-60
2021/06/07 01:54:14;;;;;;;6.13;3.80;;;;;;;;;;1493323;39;20034;-61
2021/06/07 01:55:16;;;;;;;4.00;3.20;;;;;;;;;;1493306;39;20035;-60
2021/06/07 01:56:17;;;;;;;6.50;3.55;;;;;;;;;;1493332;39;20032;-61
2021/06/07 01:57:18;;;;;;;4.68;3.45;;;;;;;;;;1493161;39;20028;-61
2021/06/07 01:58:21;;;;;;;4.53;3.20;;;;;;;;;;1493113;39;20088;-61
2021/06/07 01:59:22;;;;;;;9.98;3.40;;;;;;;;;;1493102;39;20279;-60
2021/06/07 02:00:28;;;;;;;5.95;2.88;;;;;;;;;;1493136;39;20035;-61
2021/06/07 02:01:29;;;;;;;7.90;3.25;;;;;;;;;;1493314;39;20028;-60
2021/06/07 02:02:31;;;;;;;3.33;2.90;;;;;;;;;;1493359;39;20071;-57
2021/06/07 02:03:32;;;;;;;5.90;3.38;;;;;;;;;;1493093;39;20383;-56
2021/06/07 02:04:33;;;;;;;3.30;2.90;;;;;;;;;;1493272;39;20117;-56
2021/06/07 02:05:36;;;;;;;4.43;3.20;;;;;;;;;;1493300;39;20035;-57
2021/06/07 02:06:39;;;;;;;4.53;3.10;;;;;;;;;;1493234;39;20024;-57
2021/06/07 02:07:43;;;;;;;5.80;2.97;;;;;;;;;;1493217;39;20034;-57
2021/06/07 02:08:46;;;;;;;4.38;3.15;;;;;;;;;;1493178;39;20050;-57
2021/06/07 02:09:47;;;;;;;4.20;3.05;;;;;;;;;;1492997;39;20024;-56
2021/06/07 02:10:50;;;;;;;3.42;2.88;;;;;;;;;;1493322;39;20028;-57
2021/06/07 02:11:51;;;;;;;6.22;3.22;;;;;;;;;;1493235;39;20035;-57
2021/06/07 02:12:53;;;;;;;4.28;3.10;;;;;;;;;;1493007;39;20340;-56
2021/06/07 02:13:57;;;;;;;5.25;3.40;;;;;;;;;;1493207;39;20027;-57
2021/06/07 02:14:58;;;;;;;5.18;3.55;;;;;;;;;;1493086;39;20031;-56
2021/06/07 02:16:01;;;;;;;4.75;3.05;;;;;;;;;;1493143;39;20024;-57
2021/06/07 02:17:03;;;;;;;6.05;3.17;;;;;;;;;;1493158;39;20054;-56
2021/06/07 02:18:06;;;;;;;4.82;3.20;;;;;;;;;;1493059;39;20112;-57
2021/06/07 02:19:09;;;;;;;4.13;3.20;;;;;;;;;;1493231;39;20028;-57
2021/06/07 02:20:13;;;;;;;5.57;3.25;;;;;;;;;;1493108;39;20023;-57
2021/06/07 02:21:17;;;;;;;5.38;3.17;;;;;;;;;;1493223;39;20024;-56
2021/06/07 02:22:18;;;;;;;5.82;3.50;;;;;;;;;;1493067;39;20380;-57
2021/06/07 02:23:19;;;;;;;5.45;3.17;;;;;;;;;;1492999;39;20092;-56
2021/06/07 02:24:21;;;;;;;8.98;3.60;;;;;;;;;;1493232;39;20024;-57
2021/06/07 02:25:23;;;;;;;6.65;3.47;;;;;;;;;;1493112;39;20032;-56
2021/06/07 02:26:25;;;;;;;4.10;3.30;;;;;;;;;;1493040;39;20035;-57
2021/06/07 02:27:26;;;;;;;5.00;3.20;;;;;;;;;;1493034;39;20323;-56
2021/06/07 02:28:28;;;;;;;4.18;3.40;;;;;;;;;;1493093;39;20073;-56
2021/06/07 02:29:29;;;;;;;5.18;3.45;;;;;;;;;;1493098;39;20383;-57
2021/06/07 02:30:30;;;;;;;4.95;3.63;;;;;;;;;;1492940;39;20051;-56
2021/06/07 02:31:32;;;;;;;5.88;3.08;;;;;;;;;;1493064;39;20395;-57
2021/06/07 02:32:33;;;;;;;5.40;3.03;;;;;;;;;;1493152;39;20113;-57
2021/06/07 02:33:34;;;;;;;4.95;2.88;;;;;;;;;;1493276;39;20056;-57
2021/06/07 02:34:36;;;;;;;5.45;3.33;;;;;;;;;;1493199;39;20027;-57
2021/06/07 02:35:38;;;;;;;6.10;3.28;;;;;;;;;;1493192;39;20024;-57
2021/06/07 02:36:43;;;;;;;4.32;3.17;;;;;;;;;;1493002;39;20311;-57
2021/06/07 02:37:45;;;;;;;4.57;3.22;;;;;;;;;;1493223;39;20038;-57
2021/06/07 02:38:46;;;;;;;4.20;3.15;;;;;;;;;;1493020;39;20027;-57
2021/06/07 02:39:49;;;;;;;4.75;3.22;;;;;;;;;;1493268;39;20113;-57
2021/06/07 02:40:53;;;;;;;5.38;3.35;;;;;;;;;;1493254;39;20024;-59
2021/06/07 02:41:55;;;;;;;4.50;3.15;;;;;;;;;;1493286;39;20032;-57
2021/06/07 02:42:57;;;;;;;4.25;3.17;;;;;;;;;;1492947;39;20032;-57
2021/06/07 02:43:58;;;;;;;5.65;3.03;;;;;;;;;;1493197;39;20035;-57
2021/06/07 02:44:59;;;;;;;4.05;3.00;;;;;;;;;;1492959;39;20047;-57
2021/06/07 02:46:01;;;;;;;5.43;3.05;;;;;;;;;;1493011;39;20031;-56
2021/06/07 02:47:02;;;;;;;5.70;3.08;;;;;;;;;;1493045;39;20024;-56
2021/06/07 02:48:05;;;;;;;9.95;3.15;;;;;;;;;;1493029;39;20031;-56
2021/06/07 02:49:05;;;;;;;4.75;2.95;;;;;;;;;;1492976;39;20035;-57
2021/06/07 02:50:09;;;;;;;5.95;3.10;;;;;;;;;;1492923;39;20066;-57
2021/06/07 02:51:10;;;;;;;7.35;3.38;;;;;;;;;;1493135;39;20036;-57
2021/06/07 02:52:11;;;;;;;5.88;3.55;;;;;;;;;;1492521;39;20066;-57
2021/06/07 02:53:13;;;;;;;4.28;3.28;;;;;;;;;;1492519;39;20385;-56
2021/06/07 02:54:15;;;;;;;4.50;3.35;;;;;;;;;;1492961;39;20031;-57
2021/06/07 02:55:20;;;;;;;5.35;3.00;;;;;;;;;;1493108;39;20032;-57
2021/06/07 02:56:21;;;;;;;4.97;3.22;;;;;;;;;;1493163;39;20391;-56
2021/06/07 02:57:22;;;;;;;5.93;3.33;;;;;;;;;;1492982;39;20132;-56
2021/06/07 02:58:24;;;;;;;7.30;2.85;;;;;;;;;;1493139;39;20032;-57
2021/06/07 02:59:24;;;;;;;5.40;3.00;;;;;;;;;;1492978;39;20345;-57
2021/06/07 03:00:28;;;;;;;4.28;3.25;;;;;;;;;;1492948;39;20031;-57
2021/06/07 03:01:30;;;;;;;7.43;3.20;;;;;;;;;;1492945;39;20113;-57
2021/06/07 03:02:31;;;;;;;4.22;3.20;;;;;;;;;;1492969;39;20039;-57
2021/06/07 03:03:32;;;;;;;5.28;3.15;;;;;;;;;;1492941;39;20027;-56
2021/06/07 03:04:33;;;;;;;5.32;3.20;;;;;;;;;;1492953;39;20040;-56
2021/06/07 03:05:35;;;;;;;5.15;3.42;;;;;;;;;;1492903;39;20031;-57
2021/06/07 03:06:36;;;;;;;5.47;3.35;;;;;;;;;;1492945;39;20068;-56
2021/06/07 03:07:37;;;;;;;6.75;3.45;;;;;;;;;;1492941;39;20040;-57
2021/06/07 03:08:38;;;;;;;4.68;2.95;;;;;;;;;;1492949;39;20372;-56
2021/06/07 03:09:39;;;;;;;5.20;2.83;;;;;;;;;;1492992;39;20094;-56
2021/06/07 03:10:44;;;;;;;4.45;3.22;;;;;;;;;;1492862;39;20058;-57
2021/06/07 03:11:45;;;;;;;3.80;2.95;;;;;;;;;;1492947;39;20413;-57
2021/06/07 03:12:48;;;;;;;4.18;2.75;;;;;;;;;;1493035;39;20034;-57
2021/06/07 03:13:49;;;;;;;3.90;2.95;;;;;;;;;;1492955;39;20401;-57
2021/06/07 03:14:50;;;;;;;3.63;2.72;;;;;;;;;;1493129;39;20028;-58
2021/06/07 03:15:53;;;;;;;5.15;2.70;;;;;;;;;;1492874;39;20032;-57
2021/06/07 03:16:54;;;;;;;5.68;2.63;;;;;;;;;;1493100;39;20028;-56
2021/06/07 03:17:56;;;;;;;7.90;3.15;;;;;;;;;;1493014;39;20272;-57
2021/06/07 03:18:56;;;;;;;5.45;3.50;;;;;;;;;;1493104;39;20044;-56
2021/06/07 03:19:58;;;;;;;4.75;3.40;;;;;;;;;;1493095;39;20028;-57
2021/06/07 03:20:59;;;;;;;4.93;3.40;;;;;;;;;;1492946;39;20086;-57
2021/06/07 03:22:00;;;;;;;5.13;3.28;;;;;;;;;;1492944;39;20032;-56
2021/06/07 03:23:03;;;;;;;7.05;3.05;;;;;;;;;;1492843;39;20356;-56
2021/06/07 03:24:05;;;;;;;6.45;3.33;;;;;;;;;;1493071;39;20042;-57
2021/06/07 03:25:08;;;;;;;4.20;3.15;;;;;;;;;;1492912;39;20394;-56
2021/06/07 03:26:11;;;;;;;4.45;3.10;;;;;;;;;;1493114;39;20024;-56
2021/06/07 03:27:12;;;;;;;4.32;3.38;;;;;;;;;;1493076;39;20073;-56
2021/06/07 03:28:15;;;;;;;5.82;3.60;;;;;;;;;;1492319;39;20053;-57
2021/06/07 03:29:15;;;;;;;7.30;3.92;;;;;;;;;;1492831;39;20139;-56
2021/06/07 03:30:17;;;;;;;6.13;3.67;;;;;;;;;;1492814;39;20088;-57
2021/06/07 03:31:19;;;;;;;5.22;3.63;;;;;;;;;;1493069;39;20039;-56
2021/06/07 03:32:20;;;;;;;6.25;3.55;;;;;;;;;;1492879;39;20089;-57
2021/06/07 03:33:22;;;;;;;5.18;3.08;;;;;;;;;;1492794;39;20059;-56
2021/06/07 03:34:23;;;;;;;6.43;3.20;;;;;;;;;;1492908;39;20410;-56
2021/06/07 03:35:25;;;;;;;3.95;3.25;;;;;;;;;;1492857;39;20027;-56
2021/06/07 03:36:26;;;;;;;4.53;2.80;;;;;;;;;;1493052;39;20030;-56
2021/06/07 03:37:27;;;;;;;6.55;4.13;;;;;;;;;;1493009;39;20028;-57
2021/06/07 03:38:31;;;;;;;5.65;3.55;;;;;;;;;;1492970;39;20032;-56
2021/06/07 03:39:33;;;;;;;4.35;2.92;;;;;;;;;;1493067;39;20028;-56
2021/06/07 03:40:36;;;;;;;6.63;3.17;;;;;;;;;;1492853;39;20028;-55
2021/06/07 03:41:38;;;;;;;5.10;3.13;;;;;;;;;;1492899;39;20280;-57
2021/06/07 03:42:40;;;;;;;4.97;3.10;;;;;;;;;;1492808;39;20292;-57
2021/06/07 03:43:41;;;;;;;7.18;2.92;;;;;;;;;;1493027;39;20035;-57
2021/06/07 03:44:42;;;;;;;4.82;3.20;;;;;;;;;;1492810;39;20024;-56
2021/06/07 03:45:43;;;;;;;5.03;3.28;;;;;;;;;;1492805;39;20023;-57
2021/06/07 03:46:44;;;;;;;4.47;3.13;;;;;;;;;;1492862;39;20387;-56
2021/06/07 03:47:46;;;;;;;5.93;3.50;;;;;;;;;;1492827;39;20048;-57
2021/06/07 03:48:47;;;;;;;7.28;3.67;;;;;;;;;;1492806;39;20024;-58
2021/06/07 03:49:48;;;;;;;6.25;4.10;;;;;;;;;;1492963;39;20023;-56
2021/06/07 03:50:50;;;;;;;5.65;3.58;;;;;;;;;;1492825;39;20432;-57
2021/06/07 03:51:52;;;;;;;5.55;3.30;;;;;;;;;;1492994;39;20028;-57
2021/06/07 03:52:53;;;;;;;4.88;3.25;;;;;;;;;;1492783;39;20059;-57
2021/06/07 03:53:55;;;;;;;5.55;3.60;;;;;;;;;;1492986;39;20063;-57
2021/06/07 03:54:55;;;;;;;5.60;3.50;;;;;;;;;;1492953;39;20031;-56
2021/06/07 03:55:57;;;;;;;4.80;3.28;;;;;;;;;;1492967;39;20387;-56
2021/06/07 03:56:59;;;;;;;4.15;3.20;;;;;;;;;;1492983;39;20028;-57
2021/06/07 03:58:01;;;;;;;6.05;3.25;;;;;;;;;;1492389;39;20118;-57
2021/06/07 03:59:02;;;;;;;6.53;3.70;;;;;;;;;;1492458;39;20032;-57
2021/06/07 04:00:05;;;;;;;4.47;3.20;;;;;;;;;;1493011;39;20031;-57
2021/06/07 04:01:07;;;;;;;7.57;3.97;;;;;;;;;;1492766;39;20112;-56
2021/06/07 04:02:09;;;;;;;4.30;3.38;;;;;;;;;;1492782;39;20023;-56
2021/06/07 04:03:11;;;;;;;7.25;4.00;;;;;;;;;;1492676;39;20318;-57
2021/06/07 04:04:13;;;;;;;6.10;3.97;;;;;;;;;;1492908;39;20035;-57
2021/06/07 04:05:15;;;;;;;5.28;3.60;;;;;;;;;;1492932;39;20032;-56
2021/06/07 04:06:16;;;;;;;5.78;3.50;;;;;;;;;;1492761;39;20031;-57
2021/06/07 04:07:18;;;;;;;5.50;3.28;;;;;;;;;;1492786;39;20028;-57
2021/06/07 04:08:19;;;;;;;5.28;3.20;;;;;;;;;;1492946;39;20112;-57
2021/06/07 04:09:21;;;;;;;5.03;3.03;;;;;;;;;;1492979;39;20023;-56
2021/06/07 04:10:25;;;;;;;5.50;3.50;;;;;;;;;;1492866;39;20039;-57
2021/06/07 04:11:25;;;;;;;5.18;3.80;;;;;;;;;;1492932;39;20089;-57
2021/06/07 04:12:28;;;;;;;5.38;3.78;;;;;;;;;;1492918;39;20047;-57
2021/06/07 04:13:29;;;;;;;5.68;3.60;;;;;;;;;;1492972;39;20048;-57
2021/06/07 04:14:30;;;;;;;8.13;4.72;;;;;;;;;;1492763;39;20280;-56
2021/06/07 04:15:31;;;;;;;7.80;4.70;;;;;;;;;;1492945;39;20024;-57
2021/06/07 04:16:32;;;;;;;4.97;4.03;;;;;;;;;;1493010;39;20035;-56
2021/06/07 04:17:34;;;;;;;5.25;3.58;;;;;;;;;;1492778;39;20040;-57
2021/06/07 04:18:35;;;;;;;4.43;3.67;;;;;;;;;;1492734;39;20023;-56
2021/06/07 04:19:36;;;;;;;8.02;4.00;;;;;;;;;;1492941;39;20124;-57
2021/06/07 04:20:38;;;;;;;5.80;3.65;;;;;;;;;;1492982;39;20360;-57
2021/06/07 04:21:39;;;;;;;5.43;4.38;;;;;;;;;;1492979;39;20035;-56
2021/06/07 04:22:40;;;;;;;4.50;3.67;;;;;;;;;;1492895;39;20027;-57
2021/06/07 04:23:41;;;;;;;4.30;3.50;;;;;;;;;;1492759;39;20398;-57
2021/06/07 04:24:45;;;;;;;6.75;4.00;;;;;;;;;;1492740;39;20028;-56
2021/06/07 04:25:46;;;;;;;7.50;4.10;;;;;;;;;;1492772;39;20028;-56
2021/06/07 04:26:48;;;;;;;5.88;3.53;;;;;;;;;;1492679;39;20406;-57
2021/06/07 04:27:51;;;;;;;6.22;3.72;;;;;;;;;;1492862;39;20036;-56
2021/06/07 04:28:52;;;;;;;5.68;4.55;;;;;;;;;;1492759;39;20031;-56
2021/06/07 04:29:53;;;;;;;5.68;4.13;;;;;;;;;;1492672;39;20488;-56
2021/06/07 04:30:55;;;;;;;7.15;4.05;;;;;;;;;;1492939;39;20040;-57
2021/06/07 04:31:56;;;;;;;5.85;3.70;;;;;;;;;;1492934;39;20039;-57
2021/06/07 04:32:58;;;;;;;6.55;4.10;;;;;;;;;;1492825;39;20088;-57
2021/06/07 04:33:59;;;;;;;5.10;3.60;;;;;;;;;;1492870;39;20113;-57
2021/06/07 04:35:01;;;;;;;6.35;4.30;;;;;;;;;;1492772;39;20072;-56
2021/06/07 04:36:03;;;;;;;6.00;3.75;;;;;;;;;;1492637;39;20392;-57
2021/06/07 04:37:05;;;;;;;5.32;3.65;;;;;;;;;;1492639;39;20039;-57
2021/06/07 04:38:06;;;;;;;5.65;4.00;;;;;;;;;;1492756;39;20073;-56
2021/06/07 04:39:09;;;;;;;4.25;3.80;;;;;;;;;;1492754;39;20045;-57
2021/06/07 04:40:11;;;;;;;5.53;3.88;;;;;;;;;;1493476;39;20028;-57
2021/06/07 04:41:12;;;;;;;5.10;4.30;;;;;;;;;;1493560;39;20032;-56
2021/06/07 04:42:13;;;;;;;7.03;4.38;;;;;;;;;;1493505;39;20032;-57
2021/06/07 04:43:16;;;;;;;5.80;4.55;;;;;;;;;;1493403;39;20043;-57
2021/06/07 04:44:17;;;;;;;6.30;4.47;;;;;;;;;;1493467;39;20093;-57
2021/06/07 04:45:20;;;;;;;6.55;4.10;;;;;;;;;;1493274;39;20120;-57
2021/06/07 04:46:20;;;;;;;5.65;3.63;;;;;;;;;;1493376;39;20295;-57
2021/06/07 04:47:22;;;;;;;4.72;3.70;;;;;;;;;;1493303;39;20028;-57
2021/06/07 04:48:24;;;;;;;8.90;4.53;;;;;;;;;;1493518;39;20030;-57
2021/06/07 04:49:25;;;;;;;4.97;3.75;;;;;;;;;;1493288;39;20276;-57
2021/06/07 04:50:28;;;;;;;5.90;4.00;;;;;;;;;;1493253;39;20031;-57
2021/06/07 04:51:29;;;;;;;5.10;3.55;;;;;;;;;;1493301;39;20319;-57
2021/06/07 04:52:31;;;;;;;5.57;3.53;;;;;;;;;;1493447;39;20070;-57
2021/06/07 04:53:33;;;;;;;4.30;3.80;;;;;;;;;;1493352;39;20032;-57
2021/06/07 04:54:34;;;;;;;5.53;4.20;;;;;;;;;;1493419;39;20035;-57
2021/06/07 04:55:37;;;;;;;4.68;4.00;;;;;;;;;;1493187;39;20024;-57
2021/06/07 04:56:38;;;;;;;5.10;4.15;;;;;;;;;;1493241;39;20027;-57
2021/06/07 04:57:39;;;;;;;6.75;4.22;;;;;;;;;;1493320;39;20028;-56
2021/06/07 04:58:42;;;;;;;6.05;3.70;;;;;;;;;;1493422;39;20036;-56
2021/06/07 04:59:43;;;;;;;4.20;3.58;;;;;;;;;;1493252;39;20034;-57
2021/06/07 05:00:46;;;;;;;5.80;3.50;;;;;;;;;;1493246;39;20031;-57
2021/06/07 05:01:47;;;;;;;4.82;3.90;;;;;;;;;;1493220;39;20024;-57
2021/06/07 05:02:49;;;;;;;5.10;3.97;;;;;;;;;;1493209;39;20027;-57
2021/06/07 05:03:50;;;;;;;6.15;4.43;;;;;;;;;;1493410;39;20031;-57
2021/06/07 05:04:51;;;;;;;6.30;4.50;;;;;;;;;;1493406;39;20031;-57
2021/06/07 05:05:52;;;;;;;7.90;4.70;;;;;;;;;;1493409;39;20028;-57
2021/06/07 05:06:53;;;;;;;6.47;4.10;;;;;;;;;;1493192;39;20058;-57
2021/06/07 05:07:54;;;;;;;4.88;3.78;;;;;;;;;;1493188;39;20023;-57
2021/06/07 05:08:55;;;;;;;5.07;3.53;;;;;;;;;;1493252;39;20047;-57
2021/06/07 05:09:57;;;;;;;5.90;3.80;;;;;;;;;;1493255;39;20019;-57
2021/06/07 05:10:59;;;;;;;5.22;3.85;;;;;;;;;;1493377;39;20067;-57
2021/06/07 05:12:00;;;;;;;4.38;3.60;;;;;;;;;;1493224;39;20028;-57
2021/06/07 05:13:01;;;;;;;5.95;4.25;;;;;;;;;;1493197;39;20043;-57
2021/06/07 05:14:03;;;;;;;5.00;3.80;;;;;;;;;;1493179;39;20299;-57
2021/06/07 05:15:07;;;;;;;4.95;3.90;;;;;;;;;;1493190;39;20383;-57
2021/06/07 05:16:10;;;;;;;4.53;3.40;;;;;;;;;;1493235;39;20035;-57
2021/06/07 05:17:11;;;;;;;5.72;4.05;;;;;;;;;;1493382;39;20035;-57
2021/06/07 05:18:12;;;;;;;4.80;3.75;;;;;;;;;;1493307;39;20291;-57
2021/06/07 05:19:13;;;;;;;4.43;3.85;;;;;;;;;;1493225;39;20398;-57
2021/06/07 05:20:20;;;;;;;4.60;3.92;;;;;;;;;;1493427;39;20032;-57
2021/06/07 05:21:21;;;;;;;6.15;3.70;;;;;;;;;;1493229;39;20028;-57
2021/06/07 05:22:22;;;;;;;4.50;3.38;;;;;;;;;;1493317;39;20028;-57
2021/06/07 05:23:23;;;;;;;5.57;3.08;;;;;;;;;;1493306;39;20058;-58
2021/06/07 05:24:25;;;;;;;7.32;3.75;;;;;;;;;;1493241;39;20028;-57
2021/06/07 05:25:27;;;;;;;5.30;3.40;;;;;;;;;;1493431;39;20038;-57
2021/06/07 05:26:28;;;;;;;7.10;3.90;;;;;;;;;;1493390;39;20028;-57
2021/06/07 05:27:29;;;;;;;6.07;3.25;;;;;;;;;;1493367;39;20109;-57
2021/06/07 05:28:31;;;;;;;4.70;3.30;;;;;;;;;;1493394;39;20040;-57
2021/06/07 05:29:33;;;;;;;4.43;3.20;;;;;;;;;;1493253;39;20376;-58
2021/06/07 05:30:36;;;;;;;8.27;3.75;;;;;;;;;;1493121;39;20034;-57
2021/06/07 05:31:37;;;;;;;3.95;3.28;;;;;;;;;;1493383;39;20031;-57
2021/06/07 05:32:38;;;;;;;5.47;3.50;;;;;;;;;;1493313;39;20036;-60
2021/06/07 05:33:39;;;;;;;5.82;3.35;;;;;;;;;;1493271;39;20113;-57
2021/06/07 05:34:41;;;;;;;4.20;3.60;;;;;;;;;;1493141;39;20117;-57
2021/06/07 05:35:44;;;;;;;6.18;3.05;;;;;;;;;;1493368;39;20035;-57
2021/06/07 05:36:45;;;;;;;5.30;3.90;;;;;;;;;;1493240;39;20035;-57
2021/06/07 05:37:46;;;;;;;5.40;3.95;;;;;;;;;;1493375;39;20034;-57
2021/06/07 05:38:47;;;;;;;5.95;3.70;;;;;;;;;;1493137;39;20035;-57
2021/06/07 05:39:49;;;;;;;5.95;3.38;;;;;;;;;;1493318;39;20031;-57
2021/06/07 05:40:53;;;;;;;5.75;3.50;;;;;;;;;;1493152;39;20016;-57
2021/06/07 05:41:54;;;;;;;4.45;3.50;;;;;;;;;;1493350;39;20116;-58
2021/06/07 05:42:55;;;;;;;5.05;3.42;;;;;;;;;;1493220;39;20031;-57
2021/06/07 05:43:56;;;;;;;4.03;3.30;;;;;;;;;;1493322;39;20109;-57
2021/06/07 05:44:59;;;;;;;5.30;3.45;;;;;;;;;;1493323;39;20039;-57
2021/06/07 05:46:00;;;;;;;6.25;3.50;;;;;;;;;;1493344;39;20034;-57
2021/06/07 05:47:01;;;;;;;4.30;3.33;;;;;;;;;;1493242;39;20298;-57
2021/06/07 05:48:03;;;;;;;4.45;3.60;;;;;;;;;;1493121;39;20383;-57
2021/06/07 05:49:04;;;;;;;4.03;3.60;;;;;;;;;;1493324;39;20102;-57
2021/06/07 05:50:07;;;;;;;4.65;3.55;;;;;;;;;;1493105;39;20399;-57
2021/06/07 05:51:08;;;;;;;4.22;3.60;;;;;;;;;;1492939;39;20039;-57
2021/06/07 05:52:10;;;;;;;4.80;3.72;;;;;;;;;;1493066;39;20031;-57
2021/06/07 05:53:13;;;;;;;5.13;3.70;;;;;;;;;;1493109;39;20035;-60
2021/06/07 05:54:14;;;;;;;6.85;3.60;;;;;;;;;;1493268;39;20028;-57
2021/06/07 05:55:17;;;;;;;5.20;3.70;;;;;;;;;;1493123;39;20365;-57
2021/06/07 05:56:18;;;;;;;6.03;3.60;;;;;;;;;;1493308;39;20040;-58
2021/06/07 05:57:19;;;;;;;4.43;3.50;;;;;;;;;;1493252;39;20037;-57
2021/06/07 05:58:21;;;;;;;3.88;3.33;;;;;;;;;;1493316;39;20030;-57
2021/06/07 05:59:23;;;;;;;4.60;3.90;;;;;;;;;;1493081;39;20476;-57
2021/06/07 06:00:29;;;;;;;5.00;3.60;;;;;;;;;;1493094;39;20383;-57
2021/06/07 06:01:31;;;;;;;6.45;3.95;;;;;;;;;;1493117;39;20376;-57
2021/06/07 06:02:32;;;;;;;4.38;3.50;;;;;;;;;;1493098;39;20392;-58
2021/06/07 06:03:36;;;;;;;6.22;3.50;;;;;;;;;;1493071;39;20031;-57
2021/06/07 06:04:37;;;;;;;5.18;3.63;;;;;;;;;;1493034;39;20387;-57
2021/06/07 06:05:39;;;;;;;4.70;3.55;;;;;;;;;;1493059;39;20467;-57
2021/06/07 06:06:40;;;;;;;5.13;3.28;;;;;;;;;;1493105;39;20383;-58
2021/06/07 06:07:42;;;;;;;4.32;3.08;;;;;;;;;;1493108;39;20038;-57
2021/06/07 06:08:43;;;;;;;4.18;3.05;;;;;;;;;;1493282;39;20032;-57
2021/06/07 06:09:45;;;;;;;4.70;3.20;;;;;;;;;;1493252;39;20286;-57
2021/06/07 06:10:45;;;;;;;5.07;3.22;;;;;;;;;;1493027;39;20276;-57